Time;durP1;ratioP1;P1;durP2;ratioP2;P2;SDS_P1;SDS_P2;PMS_P1;PMS_P2;Temp;Humidity;BMP_temperature;BMP_pressure;BME280_temperature;BME280_humidity;BME280_pressure;Samples;Min_cycle;Max_cycle;Signal;HPM_P1;HPM_P2
2022/06/14 00:01:55;;;;;;;3.35;1.40;;;;;;;22.30;39.21;102534.91;5088500;28;20027;-75
2022/06/14 00:04:21;;;;;;;5.55;1.30;;;;;;;22.57;38.54;102542.91;5104792;28;20024;-74
2022/06/14 00:06:46;;;;;;;4.70;1.42;;;;;;;22.52;39.13;102533.28;5101300;28;20020;-75
2022/06/14 00:09:11;;;;;;;4.65;1.50;;;;;;;22.55;38.47;102544.78;5087563;28;20019;-75
2022/06/14 00:11:38;;;;;;;4.75;1.75;;;;;;;22.65;37.91;102546.19;5086234;28;20023;-75
2022/06/14 00:14:08;;;;;;;6.78;1.60;;;;;;;22.52;38.09;102551.94;5087598;28;20024;-74
2022/06/14 00:16:35;;;;;;;7.22;1.63;;;;;;;22.61;37.98;102544.56;5087848;28;20023;-74
2022/06/14 00:19:04;;;;;;;7.97;1.63;;;;;;;22.60;37.77;102553.47;5088029;28;20077;-74
2022/06/14 00:21:30;;;;;;;6.55;2.20;;;;;;;22.17;38.47;102545.94;5085328;28;20032;-74
2022/06/14 00:23:56;;;;;;;9.63;1.67;;;;;;;22.16;39.43;102544.19;5086932;28;20105;-74
2022/06/14 00:26:21;;;;;;;7.43;1.95;;;;;;;22.33;38.73;102537.44;5088946;28;20107;-74
2022/06/14 00:28:47;;;;;;;6.10;1.42;;;;;;;22.19;38.87;102541.44;5092583;28;20027;-74
2022/06/14 00:31:16;;;;;;;6.72;1.50;;;;;;;22.15;38.86;102536.25;5095091;28;20166;-74
2022/06/14 00:33:42;;;;;;;11.75;2.28;;;;;;;22.07;38.59;102544.47;5088486;28;20035;-74
2022/06/14 00:36:18;;;;;;;5.00;1.48;;;;;;;22.10;38.53;102539.06;5104174;28;20028;-74
2022/06/14 00:38:44;;;;;;;5.30;1.60;;;;;;;22.10;38.92;102535.53;5087645;28;20137;-74
2022/06/14 00:41:32;;;;;;;5.95;1.77;;;;;;;22.02;38.96;102536.66;5090400;28;20059;-74
2022/06/14 00:43:57;;;;;;;5.30;1.80;;;;;;;22.01;38.74;102532.25;5087344;28;20028;-74
2022/06/14 00:46:33;;;;;;;3.95;1.48;;;;;;;22.28;37.74;102531.41;5085370;28;20032;-74
2022/06/14 00:49:06;;;;;;;3.13;1.17;;;;;;;21.96;38.61;102535.97;5089211;28;20031;-74
2022/06/14 00:51:42;;;;;;;4.32;1.30;;;;;;;22.05;38.49;102527.69;5105474;28;20033;-74
2022/06/14 00:54:16;;;;;;;6.35;1.50;;;;;;;22.15;38.45;102529.13;5105867;28;20023;-74
2022/06/14 00:56:53;;;;;;;9.48;1.65;;;;;;;22.23;37.97;102533.34;5104372;28;20034;-74
2022/06/14 00:59:25;;;;;;;9.18;1.70;;;;;;;22.05;38.75;102530.38;5091044;28;20020;-73
2022/06/14 01:01:56;;;;;;;6.15;1.50;;;;;;;21.88;38.93;102522.03;5090516;28;20078;-74
2022/06/14 01:04:25;;;;;;;4.82;1.50;;;;;;;21.96;38.72;102514.66;5087941;28;20372;-74
2022/06/14 01:07:05;;;;;;;4.95;1.67;;;;;;;21.78;39.30;102516.97;5090200;28;20115;-74
2022/06/14 01:09:45;;;;;;;4.90;1.45;;;;;;;21.56;39.88;102518.56;5090362;28;20032;-74
2022/06/14 01:12:15;;;;;;;10.48;1.98;;;;;;;21.59;39.36;102511.34;5089580;28;20032;-75
2022/06/14 01:14:52;;;;;;;9.73;1.27;;;;;;;21.57;39.86;102512.28;5090836;28;20479;-74
2022/06/14 01:17:18;;;;;;;5.88;1.58;;;;;;;21.49;39.68;102513.38;5088338;28;20046;-74
2022/06/14 01:19:43;;;;;;;3.83;1.73;;;;;;;21.66;39.23;102514.69;5090626;28;20028;-74
2022/06/14 01:22:09;;;;;;;4.83;1.80;;;;;;;21.64;39.06;102513.88;5089970;28;20081;-74
2022/06/14 01:24:38;;;;;;;6.68;1.80;;;;;;;21.76;38.83;102508.19;5088874;28;20032;-74
2022/06/14 01:27:05;;;;;;;4.63;1.52;;;;;;;21.45;39.74;102508.19;5090799;28;20422;-74
2022/06/14 01:29:33;;;;;;;7.20;2.43;;;;;;;21.71;40.11;102507.44;5095150;28;20036;-74
2022/06/14 01:32:02;;;;;;;1.93;1.50;;;;;;;21.62;40.79;102510.38;5091443;28;20093;-74
2022/06/14 01:34:30;;;;;;;11.57;2.40;;;;;;;21.89;40.41;102507.81;5092758;28;20028;-74
2022/06/14 01:36:58;;;;;;;5.27;1.67;;;;;;;21.72;41.59;102495.91;5092511;28;20031;-74
2022/06/14 01:39:24;;;;;;;3.60;1.67;;;;;;;21.89;40.99;102497.16;5091743;28;20127;-74
2022/06/14 01:42:22;;;;;;;4.28;2.20;;;;;;;21.82;41.43;102502.66;5092627;28;20122;-74
2022/06/14 01:45:19;;;;;;;4.43;1.63;;;;;;;21.83;41.96;102491.09;5089872;28;20040;-74
2022/06/14 01:48:32;;;;;;;6.43;1.73;;;;;;;22.11;41.13;102492.88;5090168;28;20028;-74
2022/06/14 01:51:51;;;;;;;7.05;1.65;;;;;;;22.09;40.87;102494.72;5069514;28;20430;-74
2022/06/14 01:54:37;;;;;;;3.27;1.70;;;;;;;22.17;40.29;102491.81;5082727;28;20036;-74
2022/06/14 01:57:28;;;;;;;6.03;1.50;;;;;;;21.68;41.41;102484.47;5091438;28;20425;-74
2022/06/14 02:00:00;;;;;;;7.80;1.90;;;;;;;21.67;41.36;102484.50;5092552;28;20459;-74
2022/06/14 02:02:36;;;;;;;3.37;1.70;;;;;;;21.71;41.33;102494.16;5091441;28;20111;-74
2022/06/14 02:05:13;;;;;;;3.70;1.60;;;;;;;21.78;41.28;102484.19;5092958;28;20024;-75
2022/06/14 02:08:07;;;;;;;5.37;1.90;;;;;;;21.82;41.19;102486.69;5089715;28;20074;-74
2022/06/14 02:11:08;;;;;;;5.20;1.93;;;;;;;21.79;41.11;102486.78;5092051;28;20034;-75
2022/06/14 02:13:41;;;;;;;3.07;1.60;;;;;;;21.78;41.48;102481.53;5091832;28;20032;-74
2022/06/14 02:16:15;;;;;;;;;;;;;;;21.94;40.62;102489.88;5093455;28;20074;-74
2022/06/14 02:18:55;;;;;;;5.37;2.10;;;;;;;21.79;40.96;102486.78;5091655;28;19912;-74
2022/06/14 02:21:36;;;;;;;2.10;1.63;;;;;;;21.61;41.31;102482.91;5090962;28;20024;-74
2022/06/14 02:24:09;;;;;;;4.40;1.70;;;;;;;21.67;41.38;102481.84;5092009;28;20028;-75
2022/06/14 02:26:37;;;;;;;;;;;;;;;21.74;41.13;102480.72;5092171;28;20024;-74
2022/06/14 02:29:09;;;;;;;3.57;1.93;;;;;;;21.92;40.88;102481.09;5092004;28;20350;-74
2022/06/14 02:31:39;;;;;;;;;;;;;;;21.77;41.35;102482.44;5088828;28;20024;-74
2022/06/14 02:34:16;;;;;;;9.03;2.27;;;;;;;21.71;40.87;102480.84;5092294;28;20380;-74
2022/06/14 02:36:58;;;;;;;5.90;1.80;;;;;;;21.76;40.83;102476.25;5109423;27;20384;-74
2022/06/14 02:39:31;;;;;;;9.48;3.47;;;;;;;21.68;40.83;102478.28;5094251;28;20318;-74
2022/06/14 02:42:02;;;;;;;4.87;1.97;;;;;;;21.47;41.83;102466.44;5091084;28;20088;-75
2022/06/14 02:44:49;;;;;;;5.53;2.80;;;;;;;21.31;42.30;102468.72;5092284;28;20062;-75
2022/06/14 02:47:38;;;;;;;5.10;1.77;;;;;;;21.34;41.81;102474.78;5091815;28;20028;-75
2022/06/14 02:50:13;;;;;;;4.10;1.80;;;;;;;21.51;41.67;102470.75;5090624;28;20024;-74
2022/06/14 02:53:08;;;;;;;5.40;1.83;;;;;;;21.58;41.15;102482.97;5090978;28;20031;-75
2022/06/14 02:55:57;;;;;;;4.50;1.80;;;;;;;21.55;41.42;102466.25;5091254;28;20016;-75
2022/06/14 02:58:31;;;;;;;2.77;2.27;;;;;;;21.29;41.61;102473.19;5094043;28;20026;-74
2022/06/14 03:01:15;;;;;;;4.43;1.90;;;;;;;21.36;41.47;102466.78;5090091;28;20127;-75
2022/06/14 03:03:49;;;;;;;4.37;1.80;;;;;;;21.47;41.01;102463.78;5090050;28;20031;-74
2022/06/14 03:06:32;;;;;;;11.20;2.50;;;;;;;21.37;41.89;102468.53;5092264;28;20028;-75
2022/06/14 03:09:00;;;;;;;;;;;;;;;21.59;41.11;102466.13;5092168;28;20367;-74
2022/06/14 03:12:01;;;;;;;7.10;2.30;;;;;;;21.24;42.27;102461.81;5090178;28;20003;-75
2022/06/14 03:15:00;;;;;;;5.93;2.30;;;;;;;21.33;42.30;102461.56;5068150;28;20081;-75
2022/06/14 03:17:35;;;;;;;3.73;2.30;;;;;;;21.41;41.76;102454.22;5090428;28;20027;-74
2022/06/14 03:20:23;;;;;;;8.50;2.67;;;;;;;21.41;42.07;102461.34;5090607;28;20032;-75
2022/06/14 03:22:54;;;;;;;6.47;2.70;;;;;;;21.12;42.51;102463.91;5091082;28;20036;-75
2022/06/14 03:25:42;;;;;;;5.53;2.43;;;;;;;21.66;41.07;102464.13;5090670;28;20054;-75
2022/06/14 03:28:19;;;;;;;7.27;2.83;;;;;;;21.29;42.02;102465.22;5089738;28;20039;-75
2022/06/14 03:30:57;;;;;;;8.20;2.50;;;;;;;20.95;42.94;102464.41;5090530;28;20056;-75
2022/06/14 03:33:37;;;;;;;11.00;2.90;;;;;;;21.21;41.99;102469.88;5091791;28;20046;-75
2022/06/14 03:36:06;;;;;;;7.10;2.57;;;;;;;21.05;42.14;102457.03;5091329;28;20037;-74
2022/06/14 03:38:49;;;;;;;7.07;2.40;;;;;;;21.13;42.06;102456.81;5090894;28;20388;-75
2022/06/14 03:41:16;;;;;;;;;;;;;;;20.95;42.56;102456.44;5093324;28;20028;-75
2022/06/14 03:43:41;;;;;;;6.37;2.27;;;;;;;20.89;42.81;102455.72;5087626;28;20403;-75
2022/06/14 03:46:13;;;;;;;8.37;2.90;;;;;;;20.96;42.25;102459.94;5090577;28;20024;-75
2022/06/14 03:48:41;;;;;;;9.45;2.53;;;;;;;20.96;42.41;102457.28;5091236;28;20499;-76
2022/06/14 03:51:22;;;;;;;3.27;2.30;;;;;;;20.80;42.35;102468.34;5091774;28;20024;-75
2022/06/14 03:53:56;;;;;;;5.97;2.60;;;;;;;20.95;42.09;102460.84;5089017;28;20024;-75
2022/06/14 03:56:24;;;;;;;6.43;2.17;;;;;;;21.01;42.15;102456.25;5090928;28;20039;-75
2022/06/14 03:59:27;;;;;;;10.53;2.73;;;;;;;21.26;41.50;102454.69;5089423;28;20078;-75
2022/06/14 04:05:29;;;;;;;6.18;2.30;;;;;;;20.88;42.82;102464.59;5080326;28;20057;-75
2022/06/14 04:08:12;;;;;;;4.97;2.67;;;;;;;20.53;43.87;102463.75;5092538;28;20039;-75
2022/06/14 04:10:38;;;;;;;7.33;3.23;;;;;;;21.22;42.58;102468.97;5089801;28;20024;-75
2022/06/14 04:13:15;;;;;;;8.40;3.37;;;;;;;21.28;42.35;102469.69;5088481;28;20039;-75
2022/06/14 04:15:55;;;;;;;5.67;3.13;;;;;;;21.15;43.05;102474.47;5089720;28;20039;-75
2022/06/14 04:18:45;;;;;;;6.77;3.07;;;;;;;21.41;42.44;102464.84;5089989;28;20059;-75
2022/06/14 04:21:31;;;;;;;9.57;3.00;;;;;;;21.22;43.36;102475.16;5089546;28;20024;-75
2022/06/14 04:24:07;;;;;;;9.63;3.30;;;;;;;21.15;43.19;102479.78;5089537;28;20032;-75
2022/06/14 04:26:59;;;;;;;8.03;3.00;;;;;;;21.40;42.92;102468.41;5090383;28;20096;-75
2022/06/14 04:29:33;;;;;;;7.03;2.92;;;;;;;20.97;43.91;102470.53;5106570;28;20131;-74
2022/06/14 04:32:18;;;;;;;5.97;2.90;;;;;;;21.55;42.81;102463.59;5089639;28;20065;-75
2022/06/14 04:34:51;;;;;;;5.63;3.10;;;;;;;21.72;42.29;102474.59;5089906;28;20474;-75
2022/06/14 04:37:28;;;;;;;6.37;2.87;;;;;;;21.18;43.29;102474.41;5092198;28;20052;-75
2022/06/14 04:40:25;;;;;;;7.88;3.05;;;;;;;21.88;42.45;102474.13;5090913;28;20046;-74
2022/06/14 04:43:00;;;;;;;6.13;3.13;;;;;;;21.47;44.01;102470.00;5077265;28;20046;-75
2022/06/14 04:45:40;;;;;;;6.45;2.58;;;;;;;21.95;42.99;102476.50;5090544;28;20020;-75
2022/06/14 04:48:18;;;;;;;11.18;3.50;;;;;;;23.74;40.99;102469.34;5089117;28;20028;-75
2022/06/14 04:51:05;;;;;;;8.52;2.35;;;;;;;25.02;37.04;102476.47;5089429;28;20511;-75
2022/06/14 04:53:59;;;;;;;4.05;1.95;;;;;;;25.34;35.83;102474.13;5088953;28;20103;-75
2022/06/14 04:56:34;;;;;;;5.32;1.70;;;;;;;26.51;35.00;102471.06;5078790;28;20036;-75
2022/06/14 04:59:14;;;;;;;4.65;1.42;;;;;;;26.94;32.88;102467.97;5090632;28;20028;-75
2022/06/14 05:01:42;;;;;;;4.45;1.63;;;;;;;28.10;32.78;102470.47;5090864;28;20075;-75
2022/06/14 05:04:17;;;;;;;4.32;2.05;;;;;;;28.87;30.32;102475.75;5092761;28;20119;-75
2022/06/14 05:06:54;;;;;;;7.45;1.30;;;;;;;29.20;29.28;102471.03;5094399;28;20027;-75
2022/06/14 05:09:25;;;;;;;4.22;1.67;;;;;;;29.22;29.23;102477.16;5090319;28;20032;-75
2022/06/14 05:12:00;;;;;;;3.58;1.52;;;;;;;29.87;28.16;102473.91;5094154;28;20084;-75
2022/06/14 05:14:32;;;;;;;2.47;1.45;;;;;;;30.32;27.82;102480.81;5094042;28;20035;-75
2022/06/14 05:17:13;;;;;;;4.87;1.50;;;;;;;30.17;27.98;102472.81;5091701;28;20039;-75
2022/06/14 05:19:49;;;;;;;3.42;1.40;;;;;;;30.02;27.48;102479.22;5091879;28;20650;-75
2022/06/14 05:22:17;;;;;;;2.70;1.30;;;;;;;29.63;28.35;102484.44;5092689;28;20059;-75
2022/06/14 05:24:43;;;;;;;4.85;1.80;;;;;;;28.72;29.28;102491.00;5092478;28;20035;-75
2022/06/14 05:27:32;;;;;;;4.25;1.45;;;;;;;27.78;30.49;102485.75;5093880;28;20028;-75
2022/06/14 05:30:30;;;;;;;5.82;2.92;;;;;;;26.69;32.08;102485.31;5080188;28;20020;-75
2022/06/14 05:32:58;;;;;;;6.32;1.67;;;;;;;26.69;32.00;102481.78;5074156;28;20068;-75
2022/06/14 05:35:42;;;;;;;4.50;1.52;;;;;;;26.22;33.03;102484.16;5094411;28;20598;-75
2022/06/14 05:38:08;;;;;;;5.70;1.75;;;;;;;25.77;33.18;102488.13;5095129;28;20381;-75
2022/06/14 05:40:52;;;;;;;4.00;1.50;;;;;;;25.36;33.76;102474.91;5093676;28;20035;-75
2022/06/14 05:43:45;;;;;;;4.45;1.45;;;;;;;24.86;34.99;102474.44;5094055;28;20530;-75
2022/06/14 05:46:35;;;;;;;7.35;2.40;;;;;;;24.65;34.19;102478.09;5086583;28;20036;-75
2022/06/14 05:49:07;;;;;;;2.55;1.30;;;;;;;24.97;34.06;102482.00;5089418;28;20081;-75
2022/06/14 05:51:43;;;;;;;1.40;1.13;;;;;;;24.13;35.20;102487.34;5092443;28;20024;-75
2022/06/14 05:54:20;;;;;;;4.70;1.20;;;;;;;24.85;34.38;102480.75;5093355;28;20073;-75
2022/06/14 05:56:52;;;;;;;5.55;1.45;;;;;;;24.35;34.33;102487.31;5094650;28;20035;-75
2022/06/14 05:59:42;;;;;;;8.88;2.78;;;;;;;24.68;34.37;102483.31;5092694;28;20035;-73
2022/06/14 06:02:32;;;;;;;4.13;0.93;;;;;;;23.90;34.81;102487.44;5094048;28;20047;-75
2022/06/14 06:05:24;;;;;;;3.67;1.10;;;;;;;24.63;33.19;102490.66;5090288;28;20047;-75
2022/06/14 06:08:01;;;;;;;3.15;1.00;;;;;;;25.24;32.94;102485.22;5083854;28;20076;-75
2022/06/14 06:10:31;;;;;;;3.17;1.13;;;;;;;25.01;33.41;102485.41;5093198;28;20286;-75
2022/06/14 06:13:25;;;;;;;5.32;1.30;;;;;;;26.90;31.24;102487.84;5093778;28;20101;-75
2022/06/14 06:15:56;;;;;;;3.60;1.10;;;;;;;28.63;29.07;102487.97;5091794;28;20547;-75
2022/06/14 06:18:25;;;;;;;4.53;1.13;;;;;;;29.73;27.39;102479.31;5092923;28;20028;-75
2022/06/14 06:21:26;;;;;;;5.60;1.05;;;;;;;31.87;25.02;102486.94;5089418;28;20036;-74
2022/06/14 06:24:04;;;;;;;3.83;1.10;;;;;;;32.86;23.19;102482.94;5086948;28;20048;-75
2022/06/14 06:26:35;;;;;;;5.20;1.30;;;;;;;32.81;22.73;102482.47;5090216;28;20067;-75
2022/06/14 06:29:08;;;;;;;4.50;1.23;;;;;;;33.25;23.30;102491.59;5091099;28;20035;-75
2022/06/14 06:31:36;;;;;;;3.33;1.05;;;;;;;33.05;22.06;102495.03;5085577;28;20055;-75
2022/06/14 06:34:06;;;;;;;11.73;1.10;;;;;;;34.28;21.36;102495.72;5085544;28;20586;-74
2022/06/14 06:36:55;;;;;;;3.38;1.08;;;;;;;34.25;22.10;102490.56;5084138;28;20496;-74
2022/06/14 06:39:37;;;;;;;5.38;1.85;;;;;;;34.59;21.04;102493.06;5078990;28;20093;-75
2022/06/14 06:42:10;;;;;;;4.72;1.65;;;;;;;35.44;19.82;102490.19;5098212;28;20410;-74
2022/06/14 06:44:47;;;;;;;8.65;1.27;;;;;;;35.10;19.51;102496.75;5083535;28;20028;-74
2022/06/14 06:47:16;;;;;;;4.10;1.52;;;;;;;34.83;21.27;102502.81;5081219;28;20024;-75
2022/06/14 06:49:49;;;;;;;5.20;1.20;;;;;;;34.64;19.64;102501.69;5096942;28;20444;-75
2022/06/14 06:52:20;;;;;;;3.92;1.85;;;;;;;36.94;20.04;102496.09;5079106;28;20027;-75
2022/06/14 06:55:11;;;;;;;2.50;1.20;;;;;;;37.44;17.07;102491.25;5081224;28;20434;-75
2022/06/14 06:57:39;;;;;;;4.50;1.30;;;;;;;37.15;18.59;102495.00;5084320;28;20376;-75
2022/06/14 07:00:07;;;;;;;5.80;1.50;;;;;;;36.97;19.26;102495.81;5083987;28;20020;-75
2022/06/14 07:02:46;;;;;;;3.00;1.20;;;;;;;37.76;17.55;102493.50;5099553;28;20028;-75
2022/06/14 07:05:14;;;;;;;2.20;1.10;;;;;;;36.51;18.19;102497.53;5080619;28;20059;-75
2022/06/14 07:07:51;;;;;;;4.53;1.20;;;;;;;37.07;18.90;102492.16;5084214;28;20067;-74
2022/06/14 07:10:38;;;;;;;3.42;1.00;;;;;;;36.81;16.83;102498.31;5082736;28;20027;-75
2022/06/14 07:13:16;;;;;;;4.47;1.20;;;;;;;37.01;18.33;102505.41;5081093;28;20024;-74
2022/06/14 07:15:48;;;;;;;4.43;1.27;;;;;;;34.72;17.90;102502.84;5081888;28;20567;-75
2022/06/14 07:18:27;;;;;;;2.10;1.10;;;;;;;37.33;17.58;102508.69;5096934;28;20020;-75
2022/06/14 07:21:09;;;;;;;5.63;1.45;;;;;;;37.47;17.71;102499.16;5084343;28;20081;-74
2022/06/14 07:23:44;;;;;;;3.67;1.10;;;;;;;37.13;17.30;102502.47;5082117;28;20068;-75
2022/06/14 07:26:28;;;;;;;5.22;1.23;;;;;;;39.00;16.68;102500.72;5083969;28;20039;-75
2022/06/14 07:29:03;;;;;;;2.40;1.08;;;;;;;37.74;16.68;102494.63;5098155;28;20382;-74
2022/06/14 07:31:37;;;;;;;1.90;0.98;;;;;;;38.63;17.28;102496.41;5083573;28;20055;-75
2022/06/14 07:34:03;;;;;;;5.28;1.35;;;;;;;37.98;17.49;102488.59;5098669;28;20020;-75
2022/06/14 07:37:04;;;;;;;2.83;1.00;;;;;;;37.31;17.46;102506.13;5096973;28;20028;-75
2022/06/14 07:39:43;;;;;;;4.70;1.20;;;;;;;37.10;16.25;102502.78;5114044;27;20500;-75
2022/06/14 07:42:23;;;;;;;3.83;1.15;;;;;;;37.55;16.44;102491.06;5082761;28;20127;-75
2022/06/14 07:45:21;;;;;;;2.97;1.10;;;;;;;39.47;15.37;102498.50;5074464;28;20024;-75
2022/06/14 07:48:04;;;;;;;5.97;1.15;;;;;;;38.91;16.63;102493.53;5073979;28;20016;-75
2022/06/14 07:50:35;;;;;;;1.05;0.80;;;;;;;40.08;15.54;102490.03;5071057;28;20032;-76
2022/06/14 07:53:09;;;;;;;3.60;0.90;;;;;;;38.22;15.56;102493.38;5071843;28;20028;-74
2022/06/14 07:55:45;;;;;;;2.53;1.05;;;;;;;39.00;16.20;102506.16;5104207;28;20024;-75
2022/06/14 07:58:17;;;;;;;4.15;1.23;;;;;;;40.53;14.30;102499.59;5095073;28;20025;-76
2022/06/14 08:03:55;;;;;;;2.88;1.15;;;;;;;40.66;14.61;102491.69;5084314;28;20407;-75
2022/06/14 08:06:29;;;;;;;4.60;1.20;;;;;;;37.16;16.10;102502.16;5061927;28;20490;-75
2022/06/14 08:09:24;;;;;;;5.45;1.40;;;;;;;37.01;17.76;102502.69;5090808;28;20020;-75
2022/06/14 08:11:53;;;;;;;1.90;1.00;;;;;;;37.83;16.96;102499.19;5060044;28;20043;-75
2022/06/14 08:14:24;;;;;;;3.92;1.15;;;;;;;39.10;14.74;102497.00;5089905;28;20042;-75
2022/06/14 08:16:52;;;;;;;3.70;1.10;;;;;;;38.64;15.63;102492.66;5089012;28;20062;-75
2022/06/14 08:19:43;;;;;;;2.65;1.00;;;;;;;36.91;17.03;102493.69;5088051;28;20106;-75
2022/06/14 08:22:13;;;;;;;4.35;1.38;;;;;;;37.62;17.35;102492.16;5101497;28;20073;-74
2022/06/14 08:24:44;;;;;;;3.60;1.40;;;;;;;38.34;15.83;102486.66;5087402;28;20063;-75
2022/06/14 08:27:17;;;;;;;3.72;1.10;;;;;;;37.15;17.29;102484.97;5087761;28;20031;-75
2022/06/14 08:29:53;;;;;;;5.10;1.45;;;;;;;36.13;18.03;102478.34;5088904;28;20024;-75
2022/06/14 08:32:32;;;;;;;1.65;0.90;;;;;;;35.95;19.38;102475.50;5084607;28;20466;-75
2022/06/14 08:35:30;;;;;;;5.88;1.17;;;;;;;35.64;19.10;102483.78;5099278;28;20028;-75
2022/06/14 08:38:01;;;;;;;1.90;0.80;;;;;;;34.91;18.96;102481.28;5085324;28;20090;-75
2022/06/14 08:40:45;;;;;;;1.38;1.10;;;;;;;33.72;19.52;102479.66;5093202;28;20031;-75
2022/06/14 08:43:32;;;;;;;5.32;1.05;;;;;;;34.70;20.89;102477.72;5094738;28;20106;-75
2022/06/14 08:46:28;;;;;;;1.80;0.88;;;;;;;37.51;17.63;102476.03;5080100;28;20032;-75
2022/06/14 08:49:12;;;;;;;2.53;1.30;;;;;;;34.47;20.10;102477.84;5092817;28;20032;-75
2022/06/14 08:52:08;;;;;;;3.10;1.15;;;;;;;35.52;20.30;102470.44;5094709;28;20024;-75
2022/06/14 08:54:33;;;;;;;2.50;1.20;;;;;;;37.51;18.40;102473.31;5093985;28;20372;-75
2022/06/14 08:57:05;;;;;;;2.40;1.05;;;;;;;37.45;16.63;102468.44;5094441;28;20046;-75
2022/06/14 08:59:49;;;;;;;1.73;1.00;;;;;;;37.45;17.72;102473.91;5094481;28;20039;-75
2022/06/14 09:02:30;;;;;;;2.33;1.35;;;;;;;37.89;17.87;102471.28;5093653;28;20119;-75
2022/06/14 09:05:17;;;;;;;3.13;1.83;;;;;;;40.15;15.15;102467.28;5093506;28;20027;-75
2022/06/14 09:08:15;;;;;;;3.60;1.30;;;;;;;39.52;15.25;102472.34;5111166;28;20039;-75
2022/06/14 09:10:54;;;;;;;4.90;1.83;;;;;;;38.15;15.71;102465.84;5086579;28;20032;-75
2022/06/14 09:13:48;;;;;;;2.90;1.08;;;;;;;37.49;17.75;102469.84;5111191;28;20055;-75
2022/06/14 09:16:34;;;;;;;5.28;1.85;;;;;;;35.43;18.88;102458.56;5090115;28;20029;-75
2022/06/14 09:19:13;;;;;;;7.28;1.80;;;;;;;37.32;17.80;102458.78;5090776;28;20021;-75
2022/06/14 09:22:05;;;;;;;2.95;1.33;;;;;;;39.60;14.98;102460.59;5094394;28;20032;-75
2022/06/14 09:24:52;;;;;;;3.77;1.13;;;;;;;40.21;16.46;102457.53;5092776;28;20102;-75
2022/06/14 09:27:49;;;;;;;2.85;1.05;;;;;;;39.60;15.80;102449.66;5094075;28;20305;-74
2022/06/14 09:30:39;;;;;;;3.50;1.35;;;;;;;38.32;16.50;102460.53;5094113;28;20050;-74
2022/06/14 09:33:10;;;;;;;3.63;1.45;;;;;;;38.84;16.09;102452.34;5073649;28;20464;-75
2022/06/14 09:35:58;;;;;;;4.90;1.70;;;;;;;37.94;15.60;102451.72;5091018;28;20035;-74
2022/06/14 09:38:51;;;;;;;2.92;1.33;;;;;;;35.37;18.25;102454.56;5092476;28;20044;-74
2022/06/14 09:41:53;;;;;;;2.47;0.90;;;;;;;35.04;19.94;102453.88;5094465;28;20062;-74
2022/06/14 09:44:34;;;;;;;1.75;1.33;;;;;;;34.90;18.97;102452.41;5092142;28;20055;-75
2022/06/14 09:47:45;;;;;;;3.83;1.02;;;;;;;36.63;18.95;102447.31;5093377;28;20063;-75
2022/06/14 09:50:40;;;;;;;3.17;1.50;;;;;;;32.90;21.35;102449.22;5073428;28;20089;-74
2022/06/14 09:53:24;;;;;;;4.00;1.58;;;;;;;33.12;21.30;102451.03;5093454;28;20494;-74
2022/06/14 09:56:17;;;;;;;3.63;1.23;;;;;;;35.17;19.01;102442.75;5091790;28;20031;-74
2022/06/14 09:59:00;;;;;;;5.80;1.42;;;;;;;34.37;18.59;102450.66;5092628;28;20028;-74
2022/06/14 10:02:04;;;;;;;2.55;1.48;;;;;;;33.70;19.55;102447.25;5104327;28;20027;-74
2022/06/14 10:04:41;;;;;;;3.38;1.70;;;;;;;34.07;19.47;102444.16;5068059;28;20095;-74
2022/06/14 10:07:45;;;;;;;4.10;1.30;;;;;;;32.69;20.81;102440.09;5102437;28;20028;-74
2022/06/14 10:10:40;;;;;;;5.85;1.48;;;;;;;32.17;21.17;102429.69;5085180;28;20032;-74
2022/06/14 10:13:18;;;;;;;4.00;2.28;;;;;;;33.27;21.36;102440.84;5091503;28;20160;-74
2022/06/14 10:16:04;;;;;;;7.75;2.60;;;;;;;33.71;20.41;102435.41;5110047;28;20028;-75
2022/06/14 10:18:42;;;;;;;5.57;1.70;;;;;;;33.24;21.83;102424.84;5089349;28;20081;-74
2022/06/14 10:21:16;;;;;;;5.50;1.85;;;;;;;33.51;21.74;102423.56;5078567;28;20032;-74
2022/06/14 10:24:01;;;;;;;3.05;1.25;;;;;;;34.06;20.85;102425.28;5099943;28;20178;-74
2022/06/14 10:29:43;;;;;;;4.03;1.60;;;;;;;34.34;19.84;102412.09;5091043;28;20525;-74
2022/06/14 10:32:27;;;;;;;4.25;1.70;;;;;;;33.82;19.62;102412.84;5083124;28;20032;-74
2022/06/14 10:35:02;;;;;;;2.72;1.40;;;;;;;34.92;19.52;102404.22;5105953;28;20054;-74
2022/06/14 10:38:09;;;;;;;2.58;1.50;;;;;;;33.04;20.33;102412.06;5103547;28;20055;-74
2022/06/14 10:40:40;;;;;;;6.70;1.85;;;;;;;33.06;20.02;102407.38;5104193;28;20036;-74
2022/06/14 10:43:18;;;;;;;6.83;1.70;;;;;;;33.95;18.87;102405.41;5100394;28;20391;-73
2022/06/14 10:45:47;;;;;;;2.70;1.20;;;;;;;33.87;20.65;102402.47;5103134;28;20638;-74
2022/06/14 10:48:35;;;;;;;1.73;1.40;;;;;;;34.11;20.39;102406.78;5100355;28;20028;-75
2022/06/14 10:51:13;;;;;;;4.63;1.48;;;;;;;33.09;19.17;102404.41;5104772;28;20026;-73
2022/06/14 10:53:55;;;;;;;5.80;1.48;;;;;;;34.97;20.53;102388.38;5088995;28;20418;-74
2022/06/14 10:56:39;;;;;;;2.77;1.80;;;;;;;32.95;21.13;102387.44;5072371;28;20021;-74
2022/06/14 10:59:26;;;;;;;3.30;1.60;;;;;;;30.82;21.52;102400.91;5105259;28;20488;-73
2022/06/14 11:02:12;;;;;;;2.45;1.50;;;;;;;32.09;22.52;102399.63;5091337;28;20096;-74
2022/06/14 11:04:55;;;;;;;3.53;1.60;;;;;;;32.46;22.05;102388.66;5092089;28;20472;-73
2022/06/14 11:07:39;;;;;;;6.60;1.75;;;;;;;32.49;21.34;102380.28;5092048;28;20027;-74
2022/06/14 11:10:19;;;;;;;3.58;1.52;;;;;;;32.45;22.66;102389.63;5091522;28;20544;-74
2022/06/14 11:12:48;;;;;;;3.35;1.30;;;;;;;31.88;21.98;102381.41;5107795;28;20032;-74
2022/06/14 11:15:32;;;;;;;5.20;1.90;;;;;;;33.39;20.74;102378.53;5108204;28;20498;-74
2022/06/14 11:18:34;;;;;;;6.70;1.65;;;;;;;31.94;20.12;102386.34;5091261;28;20548;-73
2022/06/14 11:21:08;;;;;;;6.43;2.00;;;;;;;33.34;20.84;102380.75;5087072;28;20047;-74
2022/06/14 11:23:53;;;;;;;4.32;1.55;;;;;;;33.84;19.24;102381.06;5087682;28;20275;-74
2022/06/14 11:26:30;;;;;;;2.35;1.70;;;;;;;35.71;19.43;102369.88;5076194;28;20118;-75
2022/06/14 11:29:11;;;;;;;2.38;1.50;;;;;;;36.14;18.03;102375.84;5090742;28;20070;-74
2022/06/14 11:31:52;;;;;;;5.13;1.88;;;;;;;37.90;17.00;102372.06;5091479;28;20031;-74
2022/06/14 11:34:32;;;;;;;2.63;1.45;;;;;;;36.96;16.95;102365.19;5091607;28;20024;-74
2022/06/14 11:37:30;;;;;;;4.40;1.75;;;;;;;38.90;15.81;102357.91;5089243;28;20063;-74
2022/06/14 11:40:19;;;;;;;3.33;1.30;;;;;;;38.62;15.68;102358.16;5091297;28;20424;-75
2022/06/14 11:43:10;;;;;;;5.68;1.42;;;;;;;38.86;14.52;102357.38;5091234;28;20387;-75
2022/06/14 11:45:54;;;;;;;2.63;1.38;;;;;;;35.56;17.59;102366.72;5090382;28;20028;-75
2022/06/14 11:48:52;;;;;;;5.07;1.58;;;;;;;35.07;16.91;102361.22;5089211;28;20384;-74
2022/06/14 11:51:27;;;;;;;4.07;1.20;;;;;;;35.75;18.93;102365.84;5090375;28;20027;-74
2022/06/14 11:54:21;;;;;;;3.13;1.50;;;;;;;35.74;17.68;102352.41;5093123;28;20028;-74
2022/06/14 11:56:54;;;;;;;4.35;1.60;;;;;;;34.63;18.20;102358.78;5091917;28;20044;-74
2022/06/14 11:59:44;;;;;;;3.53;1.75;;;;;;;35.49;17.48;102349.28;5092370;28;20056;-74
2022/06/14 12:02:38;;;;;;;4.63;2.05;;;;;;;34.06;19.36;102358.38;5092136;28;20105;-75
2022/06/14 12:05:19;;;;;;;5.07;1.35;;;;;;;35.47;19.17;102341.25;5104743;27;20024;-75
2022/06/14 12:08:10;;;;;;;2.97;1.63;;;;;;;33.03;20.85;102345.34;5087722;28;20534;-75
2022/06/14 12:10:49;;;;;;;5.85;2.33;;;;;;;33.95;19.94;102353.88;5071084;28;20025;-74
2022/06/14 12:13:28;;;;;;;4.55;2.05;;;;;;;33.85;19.33;102352.94;5088980;28;20407;-74
2022/06/14 12:16:10;;;;;;;3.80;1.85;;;;;;;34.18;20.50;102348.28;5089936;28;20042;-74
2022/06/14 12:18:39;;;;;;;3.92;1.77;;;;;;;32.41;20.87;102344.88;5089296;28;20523;-74
2022/06/14 12:21:26;;;;;;;3.80;2.00;;;;;;;34.11;20.90;102336.25;5091109;28;20498;-74
2022/06/14 12:23:57;;;;;;;6.45;2.03;;;;;;;33.08;19.68;102337.69;5090842;28;20089;-74
2022/06/14 12:26:47;;;;;;;4.60;1.70;;;;;;;33.78;19.31;102332.78;5088949;28;20480;-74
2022/06/14 12:29:21;;;;;;;5.80;2.15;;;;;;;32.39;20.69;102336.03;5090364;28;20119;-73
2022/06/14 12:31:52;;;;;;;3.08;1.90;;;;;;;32.07;21.84;102329.47;5090779;28;20411;-74
2022/06/14 12:34:42;;;;;;;4.13;1.40;;;;;;;32.64;21.78;102330.38;5091340;28;20107;-74